sensor_id;sensor_type;location;lat;lon;timestamp;temperature;humidity
6270;DHT22;3168;51.684;6.954;2023-04-19T00:00:41;11.20;1.00
6270;DHT22;3168;51.684;6.954;2023-04-19T00:03:09;11.10;1.00
6270;DHT22;3168;51.684;6.954;2023-04-19T00:05:34;11.20;1.00
6270;DHT22;3168;51.684;6.954;2023-04-19T00:08:00;11.20;1.00
6270;DHT22;3168;51.684;6.954;2023-04-19T00:10:25;11.30;1.00
6270;DHT22;3168;51.684;6.954;2023-04-19T00:12:51;11.50;1.00
6270;DHT22;3168;51.684;6.954;2023-04-19T00:15:17;11.40;1.00
6270;DHT22;3168;51.684;6.954;2023-04-19T00:17:43;11.30;1.00
6270;DHT22;3168;51.684;6.954;2023-04-19T00:20:09;11.40;1.00
6270;DHT22;3168;51.684;6.954;2023-04-19T00:22:35;11.50;1.00
6270;DHT22;3168;51.684;6.954;2023-04-19T00:25:01;11.40;1.00
6270;DHT22;3168;51.684;6.954;2023-04-19T00:27:27;11.30;1.00
6270;DHT22;3168;51.684;6.954;2023-04-19T00:29:52;11.30;1.00
6270;DHT22;3168;51.684;6.954;2023-04-19T00:32:18;11.40;1.00
6270;DHT22;3168;51.684;6.954;2023-04-19T00:34:44;11.40;1.00
6270;DHT22;3168;51.684;6.954;2023-04-19T00:37:10;11.40;1.00
6270;DHT22;3168;51.684;6.954;2023-04-19T00:39:36;11.40;1.00
6270;DHT22;3168;51.684;6.954;2023-04-19T00:42:02;11.50;1.00
6270;DHT22;3168;51.684;6.954;2023-04-19T00:44:28;11.40;1.00
6270;DHT22;3168;51.684;6.954;2023-04-19T00:46:54;11.40;1.00
6270;DHT22;3168;51.684;6.954;2023-04-19T00:49:19;11.40;1.00
6270;DHT22;3168;51.684;6.954;2023-04-19T00:51:45;11.40;1.00
6270;DHT22;3168;51.684;6.954;2023-04-19T00:54:12;11.40;1.00
6270;DHT22;3168;51.684;6.954;2023-04-19T00:56:37;11.40;1.00
6270;DHT22;3168;51.684;6.954;2023-04-19T00:59:03;11.40;1.00
6270;DHT22;3168;51.684;6.954;2023-04-19T01:01:29;11.40;1.00
6270;DHT22;3168;51.684;6.954;2023-04-19T01:03:54;11.30;1.00
6270;DHT22;3168;51.684;6.954;2023-04-19T01:06:20;11.40;1.00
6270;DHT22;3168;51.684;6.954;2023-04-19T01:08:46;11.30;1.00
6270;DHT22;3168;51.684;6.954;2023-04-19T01:11:12;11.40;1.00
6270;DHT22;3168;51.684;6.954;2023-04-19T01:13:38;11.30;1.00
6270;DHT22;3168;51.684;6.954;2023-04-19T01:16:05;11.30;1.00
6270;DHT22;3168;51.684;6.954;2023-04-19T01:18:30;11.30;1.00
6270;DHT22;3168;51.684;6.954;2023-04-19T01:20:55;11.20;1.00
6270;DHT22;3168;51.684;6.954;2023-04-19T01:23:21;11.30;1.00
6270;DHT22;3168;51.684;6.954;2023-04-19T01:25:47;11.40;1.00
6270;DHT22;3168;51.684;6.954;2023-04-19T01:28:13;11.40;1.00
6270;DHT22;3168;51.684;6.954;2023-04-19T01:30:39;11.40;1.00
6270;DHT22;3168;51.684;6.954;2023-04-19T01:33:05;11.30;1.00
6270;DHT22;3168;51.684;6.954;2023-04-19T01:35:30;11.40;1.00
6270;DHT22;3168;51.684;6.954;2023-04-19T01:37:56;11.40;1.00
6270;DHT22;3168;51.684;6.954;2023-04-19T01:40:23;11.30;1.00
6270;DHT22;3168;51.684;6.954;2023-04-19T01:42:48;11.30;1.00
6270;DHT22;3168;51.684;6.954;2023-04-19T01:45:14;11.30;1.00
6270;DHT22;3168;51.684;6.954;2023-04-19T01:47:40;11.30;1.00
6270;DHT22;3168;51.684;6.954;2023-04-19T01:50:07;11.30;1.00
6270;DHT22;3168;51.684;6.954;2023-04-19T01:52:33;11.40;1.00
6270;DHT22;3168;51.684;6.954;2023-04-19T01:54:59;11.30;1.00
6270;DHT22;3168;51.684;6.954;2023-04-19T01:57:24;11.30;1.00
6270;DHT22;3168;51.684;6.954;2023-04-19T01:59:51;11.30;1.00
6270;DHT22;3168;51.684;6.954;2023-04-19T02:02:16;11.30;1.00
6270;DHT22;3168;51.684;6.954;2023-04-19T02:04:42;11.30;1.00
6270;DHT22;3168;51.684;6.954;2023-04-19T02:07:08;11.10;1.00
6270;DHT22;3168;51.684;6.954;2023-04-19T02:09:34;11.20;1.00
6270;DHT22;3168;51.684;6.954;2023-04-19T02:12:00;11.20;1.00
6270;DHT22;3168;51.684;6.954;2023-04-19T02:14:26;11.10;1.00
6270;DHT22;3168;51.684;6.954;2023-04-19T02:16:52;11.10;1.00
6270;DHT22;3168;51.684;6.954;2023-04-19T02:19:18;11.10;1.00
6270;DHT22;3168;51.684;6.954;2023-04-19T02:21:44;10.90;1.00
6270;DHT22;3168;51.684;6.954;2023-04-19T02:24:10;10.90;1.00
6270;DHT22;3168;51.684;6.954;2023-04-19T02:26:35;10.90;1.00
6270;DHT22;3168;51.684;6.954;2023-04-19T02:29:01;11.00;1.00
6270;DHT22;3168;51.684;6.954;2023-04-19T02:31:27;11.00;1.00
6270;DHT22;3168;51.684;6.954;2023-04-19T02:33:53;10.90;1.00
6270;DHT22;3168;51.684;6.954;2023-04-19T02:36:18;10.90;1.00
6270;DHT22;3168;51.684;6.954;2023-04-19T02:38:44;10.90;1.00
6270;DHT22;3168;51.684;6.954;2023-04-19T02:41:10;10.90;1.00
6270;DHT22;3168;51.684;6.954;2023-04-19T02:43:36;10.80;1.00
6270;DHT22;3168;51.684;6.954;2023-04-19T02:46:02;10.70;1.00
6270;DHT22;3168;51.684;6.954;2023-04-19T02:48:28;10.80;1.00
6270;DHT22;3168;51.684;6.954;2023-04-19T02:50:54;10.70;1.00
6270;DHT22;3168;51.684;6.954;2023-04-19T02:53:20;10.70;1.00
6270;DHT22;3168;51.684;6.954;2023-04-19T02:55:46;10.70;1.00
6270;DHT22;3168;51.684;6.954;2023-04-19T02:58:12;10.60;1.00
6270;DHT22;3168;51.684;6.954;2023-04-19T03:00:38;10.60;1.00
6270;DHT22;3168;51.684;6.954;2023-04-19T03:03:03;10.70;1.00
6270;DHT22;3168;51.684;6.954;2023-04-19T03:05:29;10.70;1.00
6270;DHT22;3168;51.684;6.954;2023-04-19T03:07:55;10.60;1.00
6270;DHT22;3168;51.684;6.954;2023-04-19T03:10:21;10.50;1.00
6270;DHT22;3168;51.684;6.954;2023-04-19T03:12:47;10.60;1.00
6270;DHT22;3168;51.684;6.954;2023-04-19T03:15:13;10.60;1.00
6270;DHT22;3168;51.684;6.954;2023-04-19T03:17:38;10.50;1.00
6270;DHT22;3168;51.684;6.954;2023-04-19T03:20:06;10.60;1.00
6270;DHT22;3168;51.684;6.954;2023-04-19T03:22:35;10.60;1.00
6270;DHT22;3168;51.684;6.954;2023-04-19T03:25:01;10.50;1.00
6270;DHT22;3168;51.684;6.954;2023-04-19T03:27:27;10.40;1.00
6270;DHT22;3168;51.684;6.954;2023-04-19T03:29:54;10.40;1.00
6270;DHT22;3168;51.684;6.954;2023-04-19T03:32:18;10.40;1.00
6270;DHT22;3168;51.684;6.954;2023-04-19T03:34:44;10.40;1.00
6270;DHT22;3168;51.684;6.954;2023-04-19T03:37:10;10.30;1.00
6270;DHT22;3168;51.684;6.954;2023-04-19T03:39:36;10.30;1.00
6270;DHT22;3168;51.684;6.954;2023-04-19T03:42:02;10.30;1.00
6270;DHT22;3168;51.684;6.954;2023-04-19T03:44:30;10.20;1.00
6270;DHT22;3168;51.684;6.954;2023-04-19T03:46:54;10.20;1.00
6270;DHT22;3168;51.684;6.954;2023-04-19T03:49:20;10.20;1.00
6270;DHT22;3168;51.684;6.954;2023-04-19T03:51:46;10.20;1.00
6270;DHT22;3168;51.684;6.954;2023-04-19T03:54:11;10.30;1.00
6270;DHT22;3168;51.684;6.954;2023-04-19T03:56:37;10.30;1.00
6270;DHT22;3168;51.684;6.954;2023-04-19T03:59:03;10.20;1.00
6270;DHT22;3168;51.684;6.954;2023-04-19T04:01:29;9.90;1.00
6270;DHT22;3168;51.684;6.954;2023-04-19T04:03:55;10.00;1.00
6270;DHT22;3168;51.684;6.954;2023-04-19T04:06:21;10.00;1.00
6270;DHT22;3168;51.684;6.954;2023-04-19T04:08:46;10.00;1.00
6270;DHT22;3168;51.684;6.954;2023-04-19T04:11:12;9.90;1.00
6270;DHT22;3168;51.684;6.954;2023-04-19T04:13:39;9.70;1.00
6270;DHT22;3168;51.684;6.954;2023-04-19T04:16:05;9.70;1.00
6270;DHT22;3168;51.684;6.954;2023-04-19T04:18:31;9.70;1.00
6270;DHT22;3168;51.684;6.954;2023-04-19T04:20:57;9.70;1.00
6270;DHT22;3168;51.684;6.954;2023-04-19T04:23:23;9.60;1.00
6270;DHT22;3168;51.684;6.954;2023-04-19T04:25:57;9.50;1.00
6270;DHT22;3168;51.684;6.954;2023-04-19T04:28:23;9.50;1.00
6270;DHT22;3168;51.684;6.954;2023-04-19T04:30:49;9.50;1.00
6270;DHT22;3168;51.684;6.954;2023-04-19T04:33:15;9.40;1.00
6270;DHT22;3168;51.684;6.954;2023-04-19T04:35:41;9.40;1.00
6270;DHT22;3168;51.684;6.954;2023-04-19T04:38:07;9.30;1.00
6270;DHT22;3168;51.684;6.954;2023-04-19T04:40:33;9.30;1.00
6270;DHT22;3168;51.684;6.954;2023-04-19T04:42:58;9.30;1.00
6270;DHT22;3168;51.684;6.954;2023-04-19T04:45:24;9.30;1.00
6270;DHT22;3168;51.684;6.954;2023-04-19T04:47:50;9.20;1.00
6270;DHT22;3168;51.684;6.954;2023-04-19T04:50:16;9.20;1.00
6270;DHT22;3168;51.684;6.954;2023-04-19T04:52:42;9.10;1.00
6270;DHT22;3168;51.684;6.954;2023-04-19T04:55:08;9.20;1.00
6270;DHT22;3168;51.684;6.954;2023-04-19T04:57:34;9.10;1.00
6270;DHT22;3168;51.684;6.954;2023-04-19T05:00:00;9.10;1.00
6270;DHT22;3168;51.684;6.954;2023-04-19T05:02:26;9.10;1.00
6270;DHT22;3168;51.684;6.954;2023-04-19T05:04:52;9.00;1.00
6270;DHT22;3168;51.684;6.954;2023-04-19T05:07:18;9.10;1.00
6270;DHT22;3168;51.684;6.954;2023-04-19T05:09:43;9.00;1.00
6270;DHT22;3168;51.684;6.954;2023-04-19T05:12:09;9.10;1.00
6270;DHT22;3168;51.684;6.954;2023-04-19T05:14:36;9.10;1.00
6270;DHT22;3168;51.684;6.954;2023-04-19T05:17:02;9.00;1.00
6270;DHT22;3168;51.684;6.954;2023-04-19T05:19:27;9.10;1.00
6270;DHT22;3168;51.684;6.954;2023-04-19T05:21:53;9.10;1.00
6270;DHT22;3168;51.684;6.954;2023-04-19T05:24:19;9.10;1.00
6270;DHT22;3168;51.684;6.954;2023-04-19T05:26:45;9.20;1.00
6270;DHT22;3168;51.684;6.954;2023-04-19T05:29:11;9.10;1.00
6270;DHT22;3168;51.684;6.954;2023-04-19T05:31:37;9.10;1.00
6270;DHT22;3168;51.684;6.954;2023-04-19T05:34:03;9.00;1.00
6270;DHT22;3168;51.684;6.954;2023-04-19T05:36:28;9.00;1.00
6270;DHT22;3168;51.684;6.954;2023-04-19T05:38:54;9.00;1.00
6270;DHT22;3168;51.684;6.954;2023-04-19T05:41:20;9.10;1.00
6270;DHT22;3168;51.684;6.954;2023-04-19T05:43:47;9.10;1.00
6270;DHT22;3168;51.684;6.954;2023-04-19T05:46:13;9.10;1.00
6270;DHT22;3168;51.684;6.954;2023-04-19T05:48:39;9.30;1.00
6270;DHT22;3168;51.684;6.954;2023-04-19T05:51:05;9.50;1.00
6270;DHT22;3168;51.684;6.954;2023-04-19T05:53:31;9.60;1.00
6270;DHT22;3168;51.684;6.954;2023-04-19T05:55:57;9.60;1.00
6270;DHT22;3168;51.684;6.954;2023-04-19T05:58:22;9.70;1.00
6270;DHT22;3168;51.684;6.954;2023-04-19T06:00:48;9.70;1.00
6270;DHT22;3168;51.684;6.954;2023-04-19T06:03:14;9.50;1.00
6270;DHT22;3168;51.684;6.954;2023-04-19T06:05:40;9.50;1.00
6270;DHT22;3168;51.684;6.954;2023-04-19T06:08:06;9.50;1.00
6270;DHT22;3168;51.684;6.954;2023-04-19T06:10:31;9.40;1.00
6270;DHT22;3168;51.684;6.954;2023-04-19T06:12:57;9.30;1.00
6270;DHT22;3168;51.684;6.954;2023-04-19T06:15:23;9.20;1.00
6270;DHT22;3168;51.684;6.954;2023-04-19T06:17:49;9.30;1.00
6270;DHT22;3168;51.684;6.954;2023-04-19T06:20:15;9.10;1.00
6270;DHT22;3168;51.684;6.954;2023-04-19T06:22:43;9.20;1.00
6270;DHT22;3168;51.684;6.954;2023-04-19T06:25:09;9.20;1.00
6270;DHT22;3168;51.684;6.954;2023-04-19T06:27:35;9.40;1.00
6270;DHT22;3168;51.684;6.954;2023-04-19T06:30:01;9.30;1.00
6270;DHT22;3168;51.684;6.954;2023-04-19T06:32:28;9.60;1.00
6270;DHT22;3168;51.684;6.954;2023-04-19T06:34:53;9.60;1.00
6270;DHT22;3168;51.684;6.954;2023-04-19T06:37:19;9.70;1.00
6270;DHT22;3168;51.684;6.954;2023-04-19T06:39:45;9.60;1.00
6270;DHT22;3168;51.684;6.954;2023-04-19T06:42:11;9.60;1.00
6270;DHT22;3168;51.684;6.954;2023-04-19T06:44:37;9.70;1.00
6270;DHT22;3168;51.684;6.954;2023-04-19T06:47:03;9.70;1.00
6270;DHT22;3168;51.684;6.954;2023-04-19T06:49:29;9.50;1.00
6270;DHT22;3168;51.684;6.954;2023-04-19T06:51:54;9.50;1.00
6270;DHT22;3168;51.684;6.954;2023-04-19T06:54:20;9.50;1.00
6270;DHT22;3168;51.684;6.954;2023-04-19T06:56:47;9.50;1.00
6270;DHT22;3168;51.684;6.954;2023-04-19T06:59:13;9.60;1.00
6270;DHT22;3168;51.684;6.954;2023-04-19T07:01:39;9.50;1.00
6270;DHT22;3168;51.684;6.954;2023-04-19T07:04:06;9.50;1.00
6270;DHT22;3168;51.684;6.954;2023-04-19T07:06:32;9.50;1.00
6270;DHT22;3168;51.684;6.954;2023-04-19T07:08:57;9.60;1.00
6270;DHT22;3168;51.684;6.954;2023-04-19T07:11:25;9.80;1.00
6270;DHT22;3168;51.684;6.954;2023-04-19T07:13:51;9.70;1.00
6270;DHT22;3168;51.684;6.954;2023-04-19T07:16:17;9.90;1.00
6270;DHT22;3168;51.684;6.954;2023-04-19T07:18:42;9.90;1.00
6270;DHT22;3168;51.684;6.954;2023-04-19T07:21:08;10.00;1.00
6270;DHT22;3168;51.684;6.954;2023-04-19T07:23:34;9.90;1.00
6270;DHT22;3168;51.684;6.954;2023-04-19T07:26:00;10.00;1.00
6270;DHT22;3168;51.684;6.954;2023-04-19T07:28:28;10.10;1.00
6270;DHT22;3168;51.684;6.954;2023-04-19T07:30:54;10.10;1.00
6270;DHT22;3168;51.684;6.954;2023-04-19T07:33:19;10.00;1.00
6270;DHT22;3168;51.684;6.954;2023-04-19T07:35:45;10.00;1.00
6270;DHT22;3168;51.684;6.954;2023-04-19T07:38:11;10.00;1.00
6270;DHT22;3168;51.684;6.954;2023-04-19T07:40:37;10.10;1.00
6270;DHT22;3168;51.684;6.954;2023-04-19T07:43:03;10.10;1.00
6270;DHT22;3168;51.684;6.954;2023-04-19T07:45:29;10.20;1.00
6270;DHT22;3168;51.684;6.954;2023-04-19T07:47:54;10.30;1.00
6270;DHT22;3168;51.684;6.954;2023-04-19T07:50:20;10.40;1.00
6270;DHT22;3168;51.684;6.954;2023-04-19T07:52:46;10.40;1.00
6270;DHT22;3168;51.684;6.954;2023-04-19T07:55:12;10.40;1.00
6270;DHT22;3168;51.684;6.954;2023-04-19T07:57:38;10.50;1.00
6270;DHT22;3168;51.684;6.954;2023-04-19T08:00:04;10.60;1.00
6270;DHT22;3168;51.684;6.954;2023-04-19T08:02:30;10.50;1.00
6270;DHT22;3168;51.684;6.954;2023-04-19T08:04:56;10.60;1.00
6270;DHT22;3168;51.684;6.954;2023-04-19T08:07:22;10.70;1.00
6270;DHT22;3168;51.684;6.954;2023-04-19T08:09:48;10.80;1.00
6270;DHT22;3168;51.684;6.954;2023-04-19T08:12:14;10.70;1.00
6270;DHT22;3168;51.684;6.954;2023-04-19T08:14:39;10.70;1.00
6270;DHT22;3168;51.684;6.954;2023-04-19T08:17:05;10.70;1.00
6270;DHT22;3168;51.684;6.954;2023-04-19T08:19:31;10.80;1.00
6270;DHT22;3168;51.684;6.954;2023-04-19T08:21:57;10.80;1.00
6270;DHT22;3168;51.684;6.954;2023-04-19T08:24:23;10.90;1.00
6270;DHT22;3168;51.684;6.954;2023-04-19T08:26:49;11.00;1.00
6270;DHT22;3168;51.684;6.954;2023-04-19T08:29:15;10.90;1.00
6270;DHT22;3168;51.684;6.954;2023-04-19T08:31:42;10.90;1.00
6270;DHT22;3168;51.684;6.954;2023-04-19T08:34:07;10.80;1.00
6270;DHT22;3168;51.684;6.954;2023-04-19T08:36:33;10.70;1.00
6270;DHT22;3168;51.684;6.954;2023-04-19T08:38:58;11.10;1.00
6270;DHT22;3168;51.684;6.954;2023-04-19T08:41:25;11.00;1.00
6270;DHT22;3168;51.684;6.954;2023-04-19T08:43:50;10.80;1.00
6270;DHT22;3168;51.684;6.954;2023-04-19T08:46:16;10.80;1.00
6270;DHT22;3168;51.684;6.954;2023-04-19T08:48:42;10.90;1.00
6270;DHT22;3168;51.684;6.954;2023-04-19T08:51:07;10.90;1.00
6270;DHT22;3168;51.684;6.954;2023-04-19T08:53:33;11.00;1.00
6270;DHT22;3168;51.684;6.954;2023-04-19T08:56:00;11.10;1.00
6270;DHT22;3168;51.684;6.954;2023-04-19T08:58:25;11.20;1.00
6270;DHT22;3168;51.684;6.954;2023-04-19T09:00:52;11.50;1.00
6270;DHT22;3168;51.684;6.954;2023-04-19T09:03:17;11.50;1.00
6270;DHT22;3168;51.684;6.954;2023-04-19T09:05:43;11.30;1.00
6270;DHT22;3168;51.684;6.954;2023-04-19T09:08:21;11.20;1.00
6270;DHT22;3168;51.684;6.954;2023-04-19T09:10:53;11.10;1.00
6270;DHT22;3168;51.684;6.954;2023-04-19T09:13:18;11.20;1.00
6270;DHT22;3168;51.684;6.954;2023-04-19T09:15:44;11.10;1.00
6270;DHT22;3168;51.684;6.954;2023-04-19T09:18:10;11.20;1.00
6270;DHT22;3168;51.684;6.954;2023-04-19T09:20:39;11.30;1.00
6270;DHT22;3168;51.684;6.954;2023-04-19T09:23:05;11.30;1.00
6270;DHT22;3168;51.684;6.954;2023-04-19T09:25:30;11.40;1.00
6270;DHT22;3168;51.684;6.954;2023-04-19T09:28:08;11.60;1.00
6270;DHT22;3168;51.684;6.954;2023-04-19T09:30:33;11.60;1.00
6270;DHT22;3168;51.684;6.954;2023-04-19T09:32:59;11.40;1.00
6270;DHT22;3168;51.684;6.954;2023-04-19T09:36:01;11.60;1.00
6270;DHT22;3168;51.684;6.954;2023-04-19T09:38:10;11.70;1.00
6270;DHT22;3168;51.684;6.954;2023-04-19T09:40:36;11.60;1.00
6270;DHT22;3168;51.684;6.954;2023-04-19T09:43:02;11.60;1.00
6270;DHT22;3168;51.684;6.954;2023-04-19T09:45:38;11.70;1.00
6270;DHT22;3168;51.684;6.954;2023-04-19T09:48:04;11.70;1.00
6270;DHT22;3168;51.684;6.954;2023-04-19T09:50:29;11.70;1.00
6270;DHT22;3168;51.684;6.954;2023-04-19T09:52:56;11.60;1.00
6270;DHT22;3168;51.684;6.954;2023-04-19T09:55:22;11.70;1.00
6270;DHT22;3168;51.684;6.954;2023-04-19T09:57:48;11.60;1.00
6270;DHT22;3168;51.684;6.954;2023-04-19T10:00:14;11.80;1.00
6270;DHT22;3168;51.684;6.954;2023-04-19T10:02:41;12.00;1.00
6270;DHT22;3168;51.684;6.954;2023-04-19T10:05:07;12.10;1.00
6270;DHT22;3168;51.684;6.954;2023-04-19T10:07:33;12.20;1.00
6270;DHT22;3168;51.684;6.954;2023-04-19T10:10:00;12.10;1.00
6270;DHT22;3168;51.684;6.954;2023-04-19T10:12:26;12.20;1.00
6270;DHT22;3168;51.684;6.954;2023-04-19T10:14:53;12.10;1.00
6270;DHT22;3168;51.684;6.954;2023-04-19T10:17:18;11.90;1.00
6270;DHT22;3168;51.684;6.954;2023-04-19T10:19:44;12.10;1.00
6270;DHT22;3168;51.684;6.954;2023-04-19T10:22:10;12.00;1.00
6270;DHT22;3168;51.684;6.954;2023-04-19T10:24:36;12.20;1.00
6270;DHT22;3168;51.684;6.954;2023-04-19T10:27:06;12.40;1.00
6270;DHT22;3168;51.684;6.954;2023-04-19T10:32:12;12.50;1.00
6270;DHT22;3168;51.684;6.954;2023-04-19T10:34:36;12.50;1.00
6270;DHT22;3168;51.684;6.954;2023-04-19T10:37:02;12.70;1.00
6270;DHT22;3168;51.684;6.954;2023-04-19T10:39:38;12.70;1.00
6270;DHT22;3168;51.684;6.954;2023-04-19T10:42:04;12.70;1.00
6270;DHT22;3168;51.684;6.954;2023-04-19T10:44:30;12.60;1.00
6270;DHT22;3168;51.684;6.954;2023-04-19T10:46:57;12.50;1.00
6270;DHT22;3168;51.684;6.954;2023-04-19T10:49:22;12.40;1.00
6270;DHT22;3168;51.684;6.954;2023-04-19T10:51:49;12.70;1.00
6270;DHT22;3168;51.684;6.954;2023-04-19T10:54:32;12.90;1.00
6270;DHT22;3168;51.684;6.954;2023-04-19T10:57:02;12.90;1.00
6270;DHT22;3168;51.684;6.954;2023-04-19T10:59:29;13.10;1.00
6270;DHT22;3168;51.684;6.954;2023-04-19T11:01:56;13.30;1.00
6270;DHT22;3168;51.684;6.954;2023-04-19T11:04:22;13.40;1.00
6270;DHT22;3168;51.684;6.954;2023-04-19T11:07:00;13.40;1.00
6270;DHT22;3168;51.684;6.954;2023-04-19T11:09:28;13.50;1.00
6270;DHT22;3168;51.684;6.954;2023-04-19T11:11:53;13.40;1.00
6270;DHT22;3168;51.684;6.954;2023-04-19T11:14:19;13.30;1.00
6270;DHT22;3168;51.684;6.954;2023-04-19T11:16:45;13.30;1.00
6270;DHT22;3168;51.684;6.954;2023-04-19T11:19:18;13.30;1.00
6270;DHT22;3168;51.684;6.954;2023-04-19T11:21:45;13.30;1.00
6270;DHT22;3168;51.684;6.954;2023-04-19T11:24:10;13.40;1.00
6270;DHT22;3168;51.684;6.954;2023-04-19T11:26:36;13.50;1.00
6270;DHT22;3168;51.684;6.954;2023-04-19T11:29:02;13.50;1.00
6270;DHT22;3168;51.684;6.954;2023-04-19T11:31:30;13.70;1.00
6270;DHT22;3168;51.684;6.954;2023-04-19T11:33:57;13.80;1.00
6270;DHT22;3168;51.684;6.954;2023-04-19T11:36:23;14.00;1.00
6270;DHT22;3168;51.684;6.954;2023-04-19T11:38:50;13.90;1.00
6270;DHT22;3168;51.684;6.954;2023-04-19T11:41:16;13.80;1.00
6270;DHT22;3168;51.684;6.954;2023-04-19T11:43:42;13.80;1.00
6270;DHT22;3168;51.684;6.954;2023-04-19T11:46:08;13.90;1.00
6270;DHT22;3168;51.684;6.954;2023-04-19T11:48:34;13.90;1.00
6270;DHT22;3168;51.684;6.954;2023-04-19T11:51:00;14.00;1.00
6270;DHT22;3168;51.684;6.954;2023-04-19T11:53:26;14.00;1.00
6270;DHT22;3168;51.684;6.954;2023-04-19T11:55:53;14.00;1.00
6270;DHT22;3168;51.684;6.954;2023-04-19T11:58:29;14.30;1.00
6270;DHT22;3168;51.684;6.954;2023-04-19T12:00:55;14.30;1.00
6270;DHT22;3168;51.684;6.954;2023-04-19T12:03:21;14.30;1.00
6270;DHT22;3168;51.684;6.954;2023-04-19T12:05:55;14.30;1.00
6270;DHT22;3168;51.684;6.954;2023-04-19T12:08:29;14.60;1.00
6270;DHT22;3168;51.684;6.954;2023-04-19T12:10:57;14.60;1.00
6270;DHT22;3168;51.684;6.954;2023-04-19T12:13:24;14.70;1.00
6270;DHT22;3168;51.684;6.954;2023-04-19T12:15:50;14.90;1.00
6270;DHT22;3168;51.684;6.954;2023-04-19T12:18:16;15.00;1.00
6270;DHT22;3168;51.684;6.954;2023-04-19T12:20:43;14.90;1.00
6270;DHT22;3168;51.684;6.954;2023-04-19T12:23:08;14.80;1.00
6270;DHT22;3168;51.684;6.954;2023-04-19T12:25:34;14.60;1.00
6270;DHT22;3168;51.684;6.954;2023-04-19T12:28:01;14.40;1.00
6270;DHT22;3168;51.684;6.954;2023-04-19T12:30:26;14.60;1.00
6270;DHT22;3168;51.684;6.954;2023-04-19T12:32:53;14.60;1.00
6270;DHT22;3168;51.684;6.954;2023-04-19T12:35:17;14.70;1.00
6270;DHT22;3168;51.684;6.954;2023-04-19T12:37:43;14.70;1.00
6270;DHT22;3168;51.684;6.954;2023-04-19T12:40:10;14.80;1.00
6270;DHT22;3168;51.684;6.954;2023-04-19T12:42:37;15.00;1.00
6270;DHT22;3168;51.684;6.954;2023-04-19T12:45:03;15.00;1.00
6270;DHT22;3168;51.684;6.954;2023-04-19T12:47:29;15.10;1.00
6270;DHT22;3168;51.684;6.954;2023-04-19T12:49:55;15.20;1.00
6270;DHT22;3168;51.684;6.954;2023-04-19T12:52:22;15.40;1.00
6270;DHT22;3168;51.684;6.954;2023-04-19T12:54:47;15.40;1.00
6270;DHT22;3168;51.684;6.954;2023-04-19T12:57:13;15.30;1.00
6270;DHT22;3168;51.684;6.954;2023-04-19T12:59:41;15.30;1.00
6270;DHT22;3168;51.684;6.954;2023-04-19T13:02:07;15.50;1.00
6270;DHT22;3168;51.684;6.954;2023-04-19T13:04:33;15.40;1.00
6270;DHT22;3168;51.684;6.954;2023-04-19T13:06:59;15.50;1.00
6270;DHT22;3168;51.684;6.954;2023-04-19T13:09:27;15.40;1.00
6270;DHT22;3168;51.684;6.954;2023-04-19T13:11:53;15.60;1.00
6270;DHT22;3168;51.684;6.954;2023-04-19T13:14:19;15.70;1.00
6270;DHT22;3168;51.684;6.954;2023-04-19T13:16:45;15.70;1.00
6270;DHT22;3168;51.684;6.954;2023-04-19T13:19:10;15.70;1.00
6270;DHT22;3168;51.684;6.954;2023-04-19T13:21:36;15.50;1.00
6270;DHT22;3168;51.684;6.954;2023-04-19T13:24:02;15.70;1.00
6270;DHT22;3168;51.684;6.954;2023-04-19T13:26:28;15.90;1.00
6270;DHT22;3168;51.684;6.954;2023-04-19T13:28:54;15.70;1.00
6270;DHT22;3168;51.684;6.954;2023-04-19T13:31:20;15.70;1.00
6270;DHT22;3168;51.684;6.954;2023-04-19T13:33:45;15.70;1.00
6270;DHT22;3168;51.684;6.954;2023-04-19T13:36:11;15.60;1.00
6270;DHT22;3168;51.684;6.954;2023-04-19T13:38:37;15.70;1.00
6270;DHT22;3168;51.684;6.954;2023-04-19T13:41:03;16.00;1.00
6270;DHT22;3168;51.684;6.954;2023-04-19T13:43:29;16.00;1.00
6270;DHT22;3168;51.684;6.954;2023-04-19T13:45:55;15.80;1.00
6270;DHT22;3168;51.684;6.954;2023-04-19T13:48:21;15.90;1.00
6270;DHT22;3168;51.684;6.954;2023-04-19T13:50:46;16.10;1.00
6270;DHT22;3168;51.684;6.954;2023-04-19T13:53:12;16.10;1.00
6270;DHT22;3168;51.684;6.954;2023-04-19T13:55:38;16.10;1.00
6270;DHT22;3168;51.684;6.954;2023-04-19T13:58:04;16.00;1.00
6270;DHT22;3168;51.684;6.954;2023-04-19T14:00:30;15.90;1.00
6270;DHT22;3168;51.684;6.954;2023-04-19T14:02:56;16.00;1.00
6270;DHT22;3168;51.684;6.954;2023-04-19T14:05:22;16.00;1.00
6270;DHT22;3168;51.684;6.954;2023-04-19T14:07:48;16.30;1.00
6270;DHT22;3168;51.684;6.954;2023-04-19T14:10:14;16.20;1.00
6270;DHT22;3168;51.684;6.954;2023-04-19T14:12:40;16.00;1.00
6270;DHT22;3168;51.684;6.954;2023-04-19T14:15:06;16.20;1.00
6270;DHT22;3168;51.684;6.954;2023-04-19T14:17:32;16.10;1.00
6270;DHT22;3168;51.684;6.954;2023-04-19T14:19:58;16.00;1.00
6270;DHT22;3168;51.684;6.954;2023-04-19T14:22:24;16.00;1.00
6270;DHT22;3168;51.684;6.954;2023-04-19T14:24:50;16.10;1.00
6270;DHT22;3168;51.684;6.954;2023-04-19T14:27:16;16.70;1.00
6270;DHT22;3168;51.684;6.954;2023-04-19T14:29:43;16.90;1.00
6270;DHT22;3168;51.684;6.954;2023-04-19T14:32:08;17.40;1.00
6270;DHT22;3168;51.684;6.954;2023-04-19T14:34:34;17.20;1.00
6270;DHT22;3168;51.684;6.954;2023-04-19T14:37:00;17.20;1.00
6270;DHT22;3168;51.684;6.954;2023-04-19T14:39:26;17.00;1.00
6270;DHT22;3168;51.684;6.954;2023-04-19T14:41:52;15.90;1.00
6270;DHT22;3168;51.684;6.954;2023-04-19T14:44:17;16.10;1.00
6270;DHT22;3168;51.684;6.954;2023-04-19T14:46:43;16.30;1.00
6270;DHT22;3168;51.684;6.954;2023-04-19T14:49:09;16.70;1.00
6270;DHT22;3168;51.684;6.954;2023-04-19T14:51:36;17.60;1.00
6270;DHT22;3168;51.684;6.954;2023-04-19T14:54:01;17.60;1.00
6270;DHT22;3168;51.684;6.954;2023-04-19T14:56:27;17.50;1.00
6270;DHT22;3168;51.684;6.954;2023-04-19T14:58:53;18.10;1.00
6270;DHT22;3168;51.684;6.954;2023-04-19T15:01:19;17.70;1.00
6270;DHT22;3168;51.684;6.954;2023-04-19T15:03:45;17.90;1.00
6270;DHT22;3168;51.684;6.954;2023-04-19T15:06:10;17.20;1.00
6270;DHT22;3168;51.684;6.954;2023-04-19T15:08:36;16.80;1.00
6270;DHT22;3168;51.684;6.954;2023-04-19T15:11:02;17.60;1.00
6270;DHT22;3168;51.684;6.954;2023-04-19T15:13:28;17.70;1.00
6270;DHT22;3168;51.684;6.954;2023-04-19T15:15:54;17.20;1.00
6270;DHT22;3168;51.684;6.954;2023-04-19T15:18:19;18.20;1.00
6270;DHT22;3168;51.684;6.954;2023-04-19T15:20:45;18.00;1.00
6270;DHT22;3168;51.684;6.954;2023-04-19T15:23:11;18.00;1.00
6270;DHT22;3168;51.684;6.954;2023-04-19T15:25:37;17.90;1.00
6270;DHT22;3168;51.684;6.954;2023-04-19T15:28:03;17.70;1.00
6270;DHT22;3168;51.684;6.954;2023-04-19T15:30:29;17.80;1.00
6270;DHT22;3168;51.684;6.954;2023-04-19T15:32:55;17.20;1.00
6270;DHT22;3168;51.684;6.954;2023-04-19T15:35:21;17.20;1.00
6270;DHT22;3168;51.684;6.954;2023-04-19T15:37:47;16.20;1.00
6270;DHT22;3168;51.684;6.954;2023-04-19T15:40:13;17.00;1.00
6270;DHT22;3168;51.684;6.954;2023-04-19T15:42:39;16.90;1.00
6270;DHT22;3168;51.684;6.954;2023-04-19T15:45:05;16.90;1.00
6270;DHT22;3168;51.684;6.954;2023-04-19T15:47:32;16.80;1.00
6270;DHT22;3168;51.684;6.954;2023-04-19T15:49:57;16.00;1.00
6270;DHT22;3168;51.684;6.954;2023-04-19T15:52:23;16.10;1.00
6270;DHT22;3168;51.684;6.954;2023-04-19T15:54:48;16.90;1.00
6270;DHT22;3168;51.684;6.954;2023-04-19T15:57:15;16.40;1.00
6270;DHT22;3168;51.684;6.954;2023-04-19T15:59:41;16.40;1.00
6270;DHT22;3168;51.684;6.954;2023-04-19T16:02:07;16.80;1.00
6270;DHT22;3168;51.684;6.954;2023-04-19T16:04:32;17.40;1.00
6270;DHT22;3168;51.684;6.954;2023-04-19T16:06:58;17.40;1.00
6270;DHT22;3168;51.684;6.954;2023-04-19T16:09:24;16.80;1.00
6270;DHT22;3168;51.684;6.954;2023-04-19T16:11:50;17.00;1.00
6270;DHT22;3168;51.684;6.954;2023-04-19T16:14:16;17.00;1.00
6270;DHT22;3168;51.684;6.954;2023-04-19T16:16:42;16.60;1.00